Gualala, California
Current Conditions -  °F | °C
As of 9:56 AM on Wednesday 28 Jan 2015 (Local Time) from KUKI Reporting Station
Overcast Overcast  
Wind Chill: 51°   Ceiling: 12000
Heat Index: 51°   Visibility: 10mi
Dew Point: 46°   Wind: 0mph
Humidity: 83%   Direction: NA
Pressure: 30.29"   Gusts: NA
Location:  38.77°N, 123.53°W
Report Text: KUKI 281756Z AUTO 00000KT 10SM OVC120 11/08 A3029 RMK AO2 SLP256 T01060078 10106 20061 53004
Loading
Personal Weather Stations






























Interactive Weather Map New forecast layout! Learn more

10-Day Weather Forecast

Advertisements
Track Severe Weather on mobile